createdAt,value
2023-05-22T00:00:17.866Z,95937.00
2023-05-22T00:02:52.554Z,95934.28
2023-05-22T00:05:26.160Z,95929.63
2023-05-22T00:07:58.946Z,95936.56
2023-05-22T00:10:31.646Z,95930.72
2023-05-22T00:13:04.282Z,95940.38
2023-05-22T00:15:37.242Z,95939.97
2023-05-22T00:18:13.814Z,95933.75
2023-05-22T00:20:46.669Z,95936.06
2023-05-22T00:23:19.352Z,95933.72
2023-05-22T00:25:52.124Z,95934.09
2023-05-22T00:28:24.881Z,95930.19
2023-05-22T00:30:57.641Z,95937.13
2023-05-22T00:33:31.745Z,95945.19
2023-05-22T00:36:04.787Z,95937.88
2023-05-22T00:38:38.189Z,95949.03
2023-05-22T00:41:11.049Z,95948.25
2023-05-22T00:43:45.605Z,95944.78
2023-05-22T00:46:21.787Z,95951.75
2023-05-22T00:48:55.940Z,95951.34
2023-05-22T00:51:29.174Z,95942.47
2023-05-22T00:54:02.047Z,95949.78
2023-05-22T00:56:34.897Z,95947.09
2023-05-22T00:59:08.026Z,95948.22
2023-05-22T01:01:42.951Z,95959.44
2023-05-22T01:04:18.686Z,95956.34
2023-05-22T01:06:51.884Z,95956.34
2023-05-22T01:09:24.669Z,95960.97
2023-05-22T01:12:00.587Z,95955.56
2023-05-22T01:14:37.719Z,95954.41
2023-05-22T01:17:22.744Z,95948.59
2023-05-22T01:20:14.430Z,95955.94
2023-05-22T01:23:11.892Z,95954.75
2023-05-22T01:25:55.048Z,95951.66
2023-05-22T01:28:45.646Z,95953.19
2023-05-22T01:31:22.232Z,95950.84
2023-05-22T01:33:56.385Z,95951.22
2023-05-22T01:36:31.860Z,95957.00
2023-05-22T01:39:06.486Z,95949.28
2023-05-22T01:41:39.737Z,95954.25
2023-05-22T01:44:12.833Z,95963.16
2023-05-22T01:46:46.895Z,95955.41
2023-05-22T01:49:19.766Z,95953.84
2023-05-22T01:51:53.952Z,95963.09
2023-05-22T01:54:32.012Z,95954.59
2023-05-22T01:57:07.464Z,95953.81
2023-05-22T01:59:45.541Z,95953.81
2023-05-22T02:02:21.209Z,95951.84
2023-05-22T02:04:56.084Z,95950.69
2023-05-22T02:07:29.768Z,95946.03
2023-05-22T02:10:03.625Z,95942.16
2023-05-22T02:12:36.682Z,95939.44
2023-05-22T02:15:10.415Z,95939.41
2023-05-22T02:17:45.692Z,95943.63
2023-05-22T02:20:19.009Z,95947.84
2023-05-22T02:22:51.649Z,95940.13
2023-05-22T02:25:24.619Z,95952.44
2023-05-22T02:27:57.367Z,95948.19
2023-05-22T02:30:30.303Z,95952.03
2023-05-22T02:33:05.639Z,95950.88
2023-05-22T02:35:38.470Z,95948.56
2023-05-22T02:38:11.335Z,95938.53
2023-05-22T02:40:44.019Z,95951.25
2023-05-22T02:43:17.100Z,95946.63
2023-05-22T02:45:49.823Z,95948.19
2023-05-22T02:48:24.131Z,95950.09
2023-05-22T02:50:57.107Z,95943.56
2023-05-22T02:53:29.832Z,95948.97
2023-05-22T02:56:03.455Z,95947.81
2023-05-22T02:58:36.154Z,95950.88
2023-05-22T03:01:09.138Z,95941.66
2023-05-22T03:03:43.783Z,95951.28
2023-05-22T03:06:16.936Z,95940.50
2023-05-22T03:08:49.638Z,95947.44
2023-05-22T03:11:22.616Z,95944.75
2023-05-22T03:13:55.367Z,95943.59
2023-05-22T03:16:28.234Z,95945.16
2023-05-22T03:19:10.342Z,95944.75
2023-05-22T03:21:44.438Z,95940.53
2023-05-22T03:24:17.433Z,95936.66
2023-05-22T03:26:50.283Z,95945.94
2023-05-22T03:29:23.117Z,95934.38
2023-05-22T03:31:56.240Z,95942.47
2023-05-22T03:34:32.248Z,95931.25
2023-05-22T03:37:05.362Z,95936.25
2023-05-22T03:39:39.538Z,95938.16
2023-05-22T03:42:13.506Z,95935.47
2023-05-22T03:44:46.152Z,95929.31
2023-05-22T03:47:18.984Z,95943.97
2023-05-22T03:49:53.132Z,95934.31
2023-05-22T03:52:26.179Z,95928.16
2023-05-22T03:54:58.898Z,95935.09
2023-05-22T03:57:31.650Z,95947.44
2023-05-22T04:00:06.682Z,95939.34
2023-05-22T04:02:40.063Z,95943.59
2023-05-22T04:05:14.370Z,95941.69
2023-05-22T04:07:47.349Z,95942.47
2023-05-22T04:10:22.619Z,95952.06
2023-05-22T04:12:55.510Z,95947.47
2023-05-22T04:15:28.360Z,95950.56
2023-05-22T04:18:01.890Z,95954.03
2023-05-22T04:20:36.068Z,95956.38
2023-05-22T04:23:08.986Z,95955.63
2023-05-22T04:25:41.737Z,95963.72
2023-05-22T04:28:17.564Z,95963.72
2023-05-22T04:30:50.562Z,95966.81
2023-05-22T04:33:24.585Z,95974.53
2023-05-22T04:35:58.678Z,95979.94
2023-05-22T04:38:31.611Z,95981.47
2023-05-22T04:41:04.722Z,95982.25
2023-05-22T04:43:38.895Z,95988.84
2023-05-22T04:46:11.660Z,95993.88
2023-05-22T04:48:44.474Z,95993.09
2023-05-22T04:51:18.642Z,95998.53
2023-05-22T04:53:52.046Z,96005.13
2023-05-22T04:56:35.394Z,96005.22
2023-05-22T04:59:10.413Z,96006.84
2023-05-22T05:01:45.446Z,96008.16
2023-05-22T05:04:18.512Z,96011.78
2023-05-22T05:06:52.967Z,96009.63
2023-05-22T05:09:25.899Z,96017.88
2023-05-22T05:11:59.272Z,96016.00
2023-05-22T05:14:32.323Z,96024.19
2023-05-22T05:17:05.114Z,96016.78
2023-05-22T05:19:37.904Z,96022.50
2023-05-22T05:22:12.067Z,96021.91
2023-05-22T05:24:44.817Z,96026.34
2023-05-22T05:27:17.533Z,96017.44
2023-05-22T05:29:50.360Z,96017.44
2023-05-22T05:32:23.316Z,96020.41
2023-05-22T05:34:56.470Z,96023.72
2023-05-22T05:37:30.912Z,96019.19
2023-05-22T05:40:04.724Z,96014.97
2023-05-22T05:42:37.430Z,96023.22
2023-05-22T05:45:11.017Z,96014.69
2023-05-22T05:47:43.738Z,96020.97
2023-05-22T05:50:16.713Z,96028.38
2023-05-22T05:52:50.794Z,96022.91
2023-05-22T05:55:23.739Z,96013.56
2023-05-22T05:57:56.464Z,96021.81
2023-05-22T06:00:29.257Z,96024.63
2023-05-22T06:03:02.223Z,96023.19
2023-05-22T06:05:35.315Z,96023.66
2023-05-22T06:08:09.607Z,96024.53
2023-05-22T06:10:42.523Z,96024.69
2023-05-22T06:13:15.405Z,96033.75
2023-05-22T06:15:48.558Z,96031.50
2023-05-22T06:18:21.335Z,96030.03
2023-05-22T06:20:54.430Z,96037.22
2023-05-22T06:23:28.630Z,96033.53
2023-05-22T06:26:01.707Z,96038.56
2023-05-22T06:28:34.441Z,96036.94
2023-05-22T06:31:07.248Z,96036.22
2023-05-22T06:33:40.888Z,96033.53
2023-05-22T06:36:13.921Z,96034.50
2023-05-22T06:38:49.615Z,96034.34
2023-05-22T06:41:22.950Z,96026.09
2023-05-22T06:43:56.030Z,96023.34
2023-05-22T06:46:29.160Z,96030.50
2023-05-22T06:49:02.003Z,96021.66
2023-05-22T06:51:34.773Z,96024.78
2023-05-22T06:54:09.540Z,96020.91
2023-05-22T06:56:42.531Z,96024.91
2023-05-22T06:59:15.224Z,96027.84
2023-05-22T07:01:48.477Z,96027.25
2023-05-22T07:04:21.683Z,96024.69
2023-05-22T07:06:54.673Z,96026.78
2023-05-22T07:09:29.334Z,96027.25
2023-05-22T07:12:02.037Z,96028.50
2023-05-22T07:14:34.771Z,96023.78
2023-05-22T07:17:07.571Z,96016.69
2023-05-22T07:19:40.216Z,96024.78
2023-05-22T07:22:12.910Z,96014.47
2023-05-22T07:24:47.571Z,96018.94
2023-05-22T07:27:20.437Z,96021.47
2023-05-22T07:29:53.207Z,96025.50
2023-05-22T07:32:25.988Z,96023.66
2023-05-22T07:34:58.724Z,96023.75
2023-05-22T07:37:31.803Z,96015.97
2023-05-22T07:40:07.444Z,96016.44
2023-05-22T07:42:40.276Z,96020.38
2023-05-22T07:45:12.950Z,96020.38
2023-05-22T07:47:45.684Z,96005.91
2023-05-22T07:50:18.475Z,96016.09
2023-05-22T07:52:51.176Z,96020.38
2023-05-22T07:55:25.310Z,96008.63
2023-05-22T07:57:58.043Z,96015.19
2023-05-22T08:00:31.290Z,96009.28
2023-05-22T08:03:04.135Z,96007.66
2023-05-22T08:05:37.182Z,96009.97
2023-05-22T08:08:10.463Z,96005.13
2023-05-22T08:10:58.137Z,96004.25
2023-05-22T08:13:37.847Z,96004.94
2023-05-22T08:16:11.190Z,96011.81
2023-05-22T08:18:44.221Z,96010.94
2023-05-22T08:21:16.921Z,96016.31
2023-05-22T08:23:49.652Z,96006.44
2023-05-22T08:26:24.064Z,96004.03
2023-05-22T08:28:56.873Z,96007.41
2023-05-22T08:31:30.076Z,96001.88
2023-05-22T08:34:04.816Z,95996.72
2023-05-22T08:36:37.647Z,96004.03
2023-05-22T08:39:12.247Z,95999.31
2023-05-22T08:41:47.479Z,95997.25
2023-05-22T08:44:21.056Z,95999.09
2023-05-22T08:46:53.815Z,96002.06
2023-05-22T08:49:27.410Z,96001.94
2023-05-22T08:52:04.285Z,96005.34
2023-05-22T08:54:37.747Z,95999.28
2023-05-22T08:57:12.634Z,95999.19
2023-05-22T08:59:46.395Z,96004.84
2023-05-22T09:02:19.473Z,96000.47
2023-05-22T09:04:52.652Z,96001.88
2023-05-22T09:07:27.901Z,95995.50
2023-05-22T09:10:01.258Z,96003.16
2023-05-22T09:12:35.461Z,96002.28
2023-05-22T09:15:10.105Z,95991.22
2023-05-22T09:17:42.885Z,95996.56
2023-05-22T09:20:15.883Z,95990.97
2023-05-22T09:22:48.653Z,95986.59
2023-05-22T09:25:22.022Z,95987.22
2023-05-22T09:27:56.508Z,95988.75
2023-05-22T09:30:29.222Z,95996.09
2023-05-22T09:33:02.108Z,95989.84
2023-05-22T09:35:35.479Z,95988.63
2023-05-22T09:38:08.884Z,95992.44
2023-05-22T09:40:43.169Z,95990.78
2023-05-22T09:43:19.279Z,95987.28
2023-05-22T09:45:57.426Z,95989.59
2023-05-22T09:48:30.428Z,95975.41
2023-05-22T09:51:04.012Z,95979.22
2023-05-22T09:53:37.233Z,95988.56
2023-05-22T09:56:13.002Z,95979.88
2023-05-22T09:58:47.844Z,95984.16
2023-05-22T10:01:20.759Z,95979.78
2023-05-22T10:03:54.723Z,95981.28
2023-05-22T10:06:28.841Z,95989.84
2023-05-22T10:09:04.450Z,95981.16
2023-05-22T10:11:39.699Z,95980.38
2023-05-22T10:14:13.934Z,95981.47
2023-05-22T10:16:47.028Z,95978.75
2023-05-22T10:19:19.878Z,95980.28
2023-05-22T10:21:52.893Z,95976.31
2023-05-22T10:24:25.690Z,95968.06
2023-05-22T10:26:59.143Z,95966.41
2023-05-22T10:29:37.286Z,95965.19
2023-05-22T10:32:14.043Z,95957.72
2023-05-22T10:34:51.953Z,95956.06
2023-05-22T10:37:32.121Z,95951.78
2023-05-22T10:40:09.024Z,95949.78
2023-05-22T10:42:42.020Z,95951.78
2023-05-22T10:45:17.586Z,95947.50
2023-05-22T10:47:50.557Z,95946.72
2023-05-22T10:50:23.385Z,95938.03
2023-05-22T10:53:19.468Z,95937.28
2023-05-22T10:55:53.084Z,95936.06
2023-05-22T10:58:29.904Z,95929.81
2023-05-22T11:01:14.619Z,95933.63
2023-05-22T11:03:54.720Z,95924.31
2023-05-22T11:06:37.973Z,95925.84
2023-05-22T11:09:20.549Z,95918.81
2023-05-22T11:12:08.136Z,95924.31
2023-05-22T11:14:40.960Z,95920.34
2023-05-22T11:17:15.222Z,95920.34
2023-05-22T11:19:58.762Z,95913.31
2023-05-22T11:22:35.269Z,95916.84
2023-05-22T11:25:08.963Z,95902.34
2023-05-22T11:27:41.983Z,95904.31
2023-05-22T11:30:15.612Z,95896.84
2023-05-22T11:32:49.816Z,95904.63
2023-05-22T11:35:23.258Z,95902.94
2023-05-22T11:37:56.542Z,95902.50
2023-05-22T11:40:29.706Z,95903.63
2023-05-22T11:43:04.052Z,95895.69
2023-05-22T11:45:38.264Z,95905.78
2023-05-22T11:48:15.264Z,95901.38
2023-05-22T11:50:48.711Z,95908.72
2023-05-22T11:53:22.000Z,95895.28
2023-05-22T11:55:54.765Z,95898.34
2023-05-22T11:58:28.494Z,95897.88
2023-05-22T12:01:05.363Z,95894.69
2023-05-22T12:03:39.446Z,95900.81
2023-05-22T12:06:13.974Z,95897.94
2023-05-22T12:08:48.003Z,95894.28
2023-05-22T12:11:21.690Z,95891.81
2023-05-22T12:14:01.282Z,95885.44
2023-05-22T12:16:35.615Z,95895.53
2023-05-22T12:19:10.557Z,95891.84
2023-05-22T12:21:45.046Z,95887.44
2023-05-22T12:24:21.611Z,95884.09
2023-05-22T12:26:54.667Z,95881.22
2023-05-22T12:29:27.359Z,95885.81
2023-05-22T12:32:02.656Z,95886.41
2023-05-22T12:34:37.708Z,95872.88
2023-05-22T12:37:19.025Z,95883.56
2023-05-22T12:39:55.706Z,95879.00
2023-05-22T12:42:29.130Z,95873.66
2023-05-22T12:45:01.835Z,95876.13
2023-05-22T12:47:34.679Z,95872.31
2023-05-22T12:50:10.351Z,95873.38
2023-05-22T12:52:43.134Z,95871.22
2023-05-22T12:55:15.854Z,95866.81
2023-05-22T12:57:48.485Z,95863.88
2023-05-22T13:00:21.412Z,95870.47
2023-05-22T13:02:54.594Z,95860.97
2023-05-22T13:05:28.800Z,95855.03
2023-05-22T13:08:01.547Z,95859.75
2023-05-22T13:10:35.469Z,95853.94
2023-05-22T13:13:08.218Z,95860.34
2023-05-22T13:15:41.253Z,95865.88
2023-05-22T13:18:14.311Z,95871.84
2023-05-22T13:20:48.506Z,95856.25
2023-05-22T13:23:21.221Z,95853.34
2023-05-22T13:25:53.901Z,95851.97
2023-05-22T13:28:26.590Z,95857.00
2023-05-22T13:30:59.383Z,95857.75
2023-05-22T13:33:32.702Z,95862.34
2023-05-22T13:36:07.277Z,95857.88
2023-05-22T13:38:40.071Z,95857.38
2023-05-22T13:41:12.851Z,95849.75
2023-05-22T13:43:45.735Z,95851.72
2023-05-22T13:46:21.040Z,95847.31
2023-05-22T13:48:54.015Z,95835.88
2023-05-22T13:51:28.300Z,95832.97
2023-05-22T13:54:01.119Z,95837.91
2023-05-22T13:56:33.796Z,95838.81
2023-05-22T13:59:09.199Z,95837.44
2023-05-22T14:01:42.250Z,95829.03
2023-05-22T14:04:15.118Z,95839.13
2023-05-22T14:06:49.203Z,95826.13
2023-05-22T14:09:22.020Z,95821.69
2023-05-22T14:11:54.807Z,95819.88
2023-05-22T14:14:27.582Z,95821.38
2023-05-22T14:17:00.328Z,95832.69
2023-05-22T14:19:33.178Z,95819.56
2023-05-22T14:22:07.473Z,95817.41
2023-05-22T14:24:40.148Z,95816.81
2023-05-22T14:27:12.888Z,95813.75
2023-05-22T14:29:45.587Z,95808.25
2023-05-22T14:32:18.341Z,95808.25
2023-05-22T14:34:51.966Z,95803.97
2023-05-22T14:37:26.055Z,95805.00
2023-05-22T14:39:58.895Z,95810.97
2023-05-22T14:42:31.675Z,95801.16
2023-05-22T14:45:04.978Z,95800.81
2023-05-22T14:47:40.633Z,95799.72
2023-05-22T14:50:19.919Z,95796.06
2023-05-22T14:52:54.830Z,95795.88
2023-05-22T14:55:28.433Z,95795.44
2023-05-22T14:58:01.531Z,95796.97
2023-05-22T15:00:34.263Z,95791.75
2023-05-22T15:03:07.122Z,95788.34
2023-05-22T15:05:40.167Z,95790.66
2023-05-22T15:08:14.599Z,95795.81
2023-05-22T15:10:47.482Z,95786.44
2023-05-22T15:13:21.576Z,95797.59
2023-05-22T15:15:54.424Z,95787.34
2023-05-22T15:18:27.625Z,95792.66
2023-05-22T15:21:01.190Z,95796.78
2023-05-22T15:23:35.654Z,95799.19
2023-05-22T15:26:08.444Z,95798.28
2023-05-22T15:28:41.303Z,95794.59
2023-05-22T15:31:14.540Z,95781.88
2023-05-22T15:33:47.678Z,95790.75
2023-05-22T15:36:21.291Z,95783.50
2023-05-22T15:38:55.508Z,95787.63
2023-05-22T15:41:28.294Z,95791.72
2023-05-22T15:44:01.194Z,95789.56
2023-05-22T15:46:34.391Z,95788.59
2023-05-22T15:49:07.168Z,95782.91
2023-05-22T15:51:40.196Z,95785.97
2023-05-22T15:54:14.330Z,95794.25
2023-05-22T15:56:47.107Z,95790.13
2023-05-22T15:59:20.521Z,95788.31
2023-05-22T16:01:53.197Z,95798.00
2023-05-22T16:04:25.991Z,95790.09
2023-05-22T16:06:58.753Z,95789.22
2023-05-22T16:09:33.055Z,95792.25
2023-05-22T16:12:06.088Z,95795.06
2023-05-22T16:14:40.069Z,95796.38
2023-05-22T16:17:13.241Z,95795.97
2023-05-22T16:19:45.913Z,95798.75
2023-05-22T16:22:19.451Z,95793.28
2023-05-22T16:24:53.570Z,95788.84
2023-05-22T16:27:26.381Z,95783.66
2023-05-22T16:30:02.494Z,95782.91
2023-05-22T16:32:35.294Z,95786.00
2023-05-22T16:35:08.326Z,95787.41
2023-05-22T16:37:41.460Z,95791.72
2023-05-22T16:40:15.984Z,95795.06
2023-05-22T16:42:48.786Z,95783.63
2023-05-22T16:45:21.566Z,95798.59
2023-05-22T16:47:55.894Z,95789.00
2023-05-22T16:50:28.925Z,95791.75
2023-05-22T16:53:01.953Z,95799.25
2023-05-22T16:55:36.131Z,95796.03
2023-05-22T16:58:09.729Z,95794.81
2023-05-22T17:00:42.980Z,95816.66
2023-05-22T17:03:16.035Z,95821.72
2023-05-22T17:05:49.205Z,95841.56
2023-05-22T17:08:22.023Z,95847.25
2023-05-22T17:10:56.574Z,95833.94
2023-05-22T17:13:29.685Z,95840.66
2023-05-22T17:16:02.508Z,95850.78
2023-05-22T17:18:35.765Z,95849.84
2023-05-22T17:21:09.224Z,95841.88
2023-05-22T17:23:42.116Z,95851.97
2023-05-22T17:26:16.602Z,95857.31
2023-05-22T17:28:49.337Z,95856.09
2023-05-22T17:31:22.798Z,95866.47
2023-05-22T17:33:55.981Z,95876.09
2023-05-22T17:36:28.733Z,95861.41
2023-05-22T17:39:01.760Z,95871.03
2023-05-22T17:41:36.471Z,95873.94
2023-05-22T17:44:09.258Z,95873.00
2023-05-22T17:46:42.340Z,95881.06
2023-05-22T17:49:15.242Z,95884.41
2023-05-22T17:51:47.932Z,95884.38
2023-05-22T17:54:20.703Z,95887.41
2023-05-22T17:56:55.193Z,95890.13
2023-05-22T17:59:27.996Z,95888.56
2023-05-22T18:02:00.937Z,95879.22
2023-05-22T18:04:33.861Z,95874.09
2023-05-22T18:07:07.133Z,95883.94
2023-05-22T18:09:39.873Z,95889.09
2023-05-22T18:12:27.880Z,95895.09
2023-05-22T18:15:04.635Z,95896.22
2023-05-22T18:17:37.414Z,95891.88
2023-05-22T18:20:12.022Z,95894.09
2023-05-22T18:22:44.693Z,95890.06
2023-05-22T18:25:17.496Z,95895.81
2023-05-22T18:27:51.657Z,95891.34
2023-05-22T18:30:24.543Z,95906.84
2023-05-22T18:32:57.297Z,95910.56
2023-05-22T18:35:30.298Z,95914.31
2023-05-22T18:38:03.140Z,95925.09
2023-05-22T18:40:35.925Z,95919.06
2023-05-22T18:43:10.045Z,95921.25
2023-05-22T18:45:42.929Z,95932.13
2023-05-22T18:48:15.964Z,95929.28
2023-05-22T18:50:48.997Z,95933.56
2023-05-22T18:53:23.192Z,95936.28
2023-05-22T18:55:56.012Z,95933.94
2023-05-22T18:58:30.338Z,95932.06
2023-05-22T19:01:03.384Z,95934.47
2023-05-22T19:03:36.138Z,95931.03
2023-05-22T19:06:09.076Z,95929.84
2023-05-22T19:08:41.819Z,95919.28
2023-05-22T19:11:14.784Z,95926.34
2023-05-22T19:13:48.920Z,95927.91
2023-05-22T19:16:21.758Z,95936.47
2023-05-22T19:18:54.916Z,95935.59
2023-05-22T19:21:27.604Z,95945.31
2023-05-22T19:24:00.822Z,95947.63
2023-05-22T19:26:33.578Z,95954.97
2023-05-22T19:29:07.795Z,95961.50
2023-05-22T19:31:40.637Z,95955.97
2023-05-22T19:34:13.338Z,95954.31
2023-05-22T19:36:46.267Z,95969.44
2023-05-22T19:39:18.985Z,95960.34
2023-05-22T19:41:52.746Z,95969.19
2023-05-22T19:44:26.797Z,95967.94
2023-05-22T19:46:59.552Z,95971.31
2023-05-22T19:49:36.745Z,95969.59
2023-05-22T19:52:09.581Z,95976.06
2023-05-22T19:54:42.382Z,95983.25
2023-05-22T19:57:15.049Z,95982.31
2023-05-22T19:59:49.074Z,95985.19
2023-05-22T20:02:21.924Z,95988.44
2023-05-22T20:04:54.781Z,95988.25
2023-05-22T20:07:27.572Z,95990.34
2023-05-22T20:10:00.415Z,95996.69
2023-05-22T20:12:33.217Z,95996.78
2023-05-22T20:15:08.217Z,96005.09
2023-05-22T20:17:41.906Z,96011.03
2023-05-22T20:20:14.786Z,96000.63
2023-05-22T20:22:47.751Z,96005.00
2023-05-22T20:25:21.239Z,96009.00
2023-05-22T20:27:54.283Z,96011.75
2023-05-22T20:30:28.427Z,96013.78
2023-05-22T20:33:01.175Z,96017.75
2023-05-22T20:35:34.128Z,96018.56
2023-05-22T20:38:08.780Z,96014.34
2023-05-22T20:40:46.658Z,96024.13
2023-05-22T20:43:20.065Z,96021.44
2023-05-22T20:45:54.256Z,96019.16
2023-05-22T20:48:27.107Z,96018.06
2023-05-22T20:50:59.826Z,96022.78
2023-05-22T20:53:32.662Z,96027.84
2023-05-22T20:56:05.506Z,96019.75
2023-05-22T20:58:39.230Z,96024.44
2023-05-22T21:01:13.393Z,96023.31
2023-05-22T21:03:46.221Z,96027.63
2023-05-22T21:06:19.284Z,96031.13
2023-05-22T21:08:54.150Z,96037.38
2023-05-22T21:11:27.152Z,96038.94
2023-05-22T21:13:59.912Z,96051.75
2023-05-22T21:16:35.789Z,96051.38
2023-05-22T21:19:10.573Z,96067.31
2023-05-22T21:21:43.311Z,96064.25
2023-05-22T21:24:16.109Z,96069.28
2023-05-22T21:26:48.835Z,96069.72
2023-05-22T21:29:21.621Z,96079.00
2023-05-22T21:31:55.840Z,96081.38
2023-05-22T21:34:28.832Z,96075.56
2023-05-22T21:37:01.560Z,96077.91
2023-05-22T21:39:34.331Z,96070.19
2023-05-22T21:42:07.648Z,96089.94
2023-05-22T21:44:40.683Z,96078.31
2023-05-22T21:47:14.701Z,96086.06
2023-05-22T21:49:47.656Z,96093.03
2023-05-22T21:52:20.506Z,96091.09
2023-05-22T21:54:53.905Z,96088.00
2023-05-22T21:57:26.559Z,96086.06
2023-05-22T21:59:59.487Z,96088.38
2023-05-22T22:02:33.728Z,96091.13
2023-05-22T22:05:07.233Z,96091.88
2023-05-22T22:07:39.964Z,96089.94
2023-05-22T22:10:12.948Z,96095.78
2023-05-22T22:12:45.676Z,96092.28
2023-05-22T22:15:18.425Z,96102.72
2023-05-22T22:17:53.287Z,96099.63
2023-05-22T22:20:42.569Z,96096.94
2023-05-22T22:23:17.404Z,96100.78
2023-05-22T22:25:50.245Z,96097.31
2023-05-22T22:28:23.403Z,96101.56
2023-05-22T22:30:56.151Z,96104.66
2023-05-22T22:33:30.569Z,96109.72
2023-05-22T22:36:03.473Z,96105.81
2023-05-22T22:38:36.163Z,96104.66
2023-05-22T22:41:10.732Z,96102.72
2023-05-22T22:43:43.448Z,96089.56
2023-05-22T22:46:16.177Z,96092.25
2023-05-22T22:48:51.202Z,96091.91
2023-05-22T22:51:24.742Z,96083.00
2023-05-22T22:53:57.695Z,96092.66
2023-05-22T22:56:30.734Z,96107.00
2023-05-22T22:59:03.485Z,96097.31
2023-05-22T23:01:36.399Z,96109.31
2023-05-22T23:04:10.717Z,96100.78
2023-05-22T23:06:43.639Z,96110.84
2023-05-22T23:09:16.435Z,96115.47
2023-05-22T23:11:49.161Z,96125.13
2023-05-22T23:14:21.789Z,96126.31
2023-05-22T23:16:54.801Z,96113.91
2023-05-22T23:19:28.967Z,96116.59
2023-05-22T23:22:01.957Z,96115.00
2023-05-22T23:24:34.664Z,96125.06
2023-05-22T23:27:07.411Z,96125.06
2023-05-22T23:29:40.157Z,96121.16
2023-05-22T23:32:14.697Z,96120.78
2023-05-22T23:34:49.121Z,96131.97
2023-05-22T23:37:21.920Z,96127.69
2023-05-22T23:39:55.304Z,96125.38
2023-05-22T23:42:28.166Z,96119.19
2023-05-22T23:45:01.748Z,96117.22
2023-05-22T23:47:34.657Z,96108.31
2023-05-22T23:50:09.301Z,96109.88
2023-05-22T23:52:42.061Z,96109.06
2023-05-22T23:55:14.793Z,96114.06
2023-05-22T23:57:47.532Z,96101.34
